Time;durP1;ratioP1;P1;durP2;ratioP2;P2;SDS_P1;SDS_P2;PMS_P1;PMS_P2;Temp;Humidity;BMP_temperature;BMP_pressure;BME280_temperature;BME280_humidity;BME280_pressure;Samples;Min_cycle;Max_cycle;Signal;HPM_P1;HPM_P2
2024/04/05 00:01:50;;;;;;;;;;;;;;;21.18;35.71;100948.29;102796;1305;63056;-78
2024/04/05 00:04:16;;;;;;;;;;;;;;;21.18;35.71;100956.35;102852;1290;63968;-78
2024/04/05 00:06:42;;;;;;;;;;;;;;;21.18;35.55;100963.52;103048;1294;64024;-79
2024/04/05 00:09:07;;;;;;;;;;;;;;;21.19;35.61;100968.67;102979;1294;63018;-78
2024/04/05 00:11:33;;;;;;;;;;;;;;;21.18;35.70;100969.60;103097;1295;63044;-78
2024/04/05 00:13:58;;;;;;;;;;;;;;;21.18;35.68;100971.92;103016;1293;72654;-79
2024/04/05 00:16:24;;;;;;;;;;;;;;;21.18;35.57;100971.75;102856;1296;63679;-78
2024/04/05 00:18:50;;;;;;;;;;;;;;;21.18;35.63;100969.98;102985;1295;63004;-79
2024/04/05 00:21:16;;;;;;;;;;;;;;;21.17;35.59;100968.42;103015;1295;62945;-78
2024/04/05 00:23:42;;;;;;;;;;;;;;;21.17;35.70;100970.73;102982;1292;63617;-78
2024/04/05 00:26:09;;;;;;;;;;;;;;;21.17;35.62;100969.14;102794;1292;63797;-77
2024/04/05 00:28:36;;;;;;;;;;;;;;;21.17;35.68;100971.61;102862;1292;75894;-78
2024/04/05 00:31:02;;;;;;;;;;;;;;;21.17;35.83;100971.25;102869;1295;63449;-78
2024/04/05 00:33:28;;;;;;;;;;;;;;;21.17;35.73;100972.89;103039;1294;64460;-78
2024/04/05 00:35:54;;;;;;;;;;;;;;;21.17;35.59;100970.42;102787;1295;63790;-79
2024/04/05 00:38:21;;;;;;;;;;;;;;;21.17;35.73;100971.13;103015;1289;63655;-80
2024/04/05 00:40:47;;;;;;;;;;;;;;;21.17;35.58;100974.15;103005;1295;63007;-78
2024/04/05 00:43:13;;;;;;;;;;;;;;;21.17;35.67;100978.64;103021;1294;63471;-78
2024/04/05 00:45:43;;;;;;;;;;;;;;;21.17;35.68;100976.33;102767;1292;63085;-78
2024/04/05 00:48:09;;;;;;;;;;;;;;;21.17;35.63;100976.34;102933;1292;75620;-78
2024/04/05 00:50:34;;;;;;;;;;;;;;;21.17;35.69;100973.46;102957;1294;63956;-78
2024/04/05 00:53:00;;;;;;;;;;;;;;;21.17;35.69;100978.48;103031;1294;63109;-78
2024/04/05 00:55:26;;;;;;;;;;;;;;;21.17;35.65;100976.85;102814;1294;64208;-79
2024/04/05 00:57:53;;;;;;;;;;;;;;;21.16;35.75;100973.70;102734;1292;62981;-79
2024/04/05 01:00:20;;;;;;;;;;;;;;;21.16;35.81;100980.13;103065;1294;62927;-78
2024/04/05 01:02:46;;;;;;;;;;;;;;;21.16;35.79;100980.66;102866;1294;62967;-79
2024/04/05 01:05:14;;;;;;;;;;;;;;;21.16;35.71;100981.73;102834;1292;63078;-78
2024/04/05 01:07:41;;;;;;;;;;;;;;;21.16;35.74;100988.00;102859;1294;63518;-78
2024/04/05 01:10:07;;;;;;;;;;;;;;;21.16;35.72;100985.34;103080;1289;63783;-78
2024/04/05 01:12:32;;;;;;;;;;;;;;;21.15;35.79;100993.96;103006;1292;62982;-77
2024/04/05 01:15:00;;;;;;;;;;;;;;;21.16;35.65;100996.79;102751;1294;63032;-78
2024/04/05 01:17:25;;;;;;;;;;;;;;;21.15;35.67;100997.17;102756;1294;63005;-79
2024/04/05 01:19:51;;;;;;;;;;;;;;;21.16;35.76;100998.42;103083;1290;63023;-78
2024/04/05 01:22:18;;;;;;;;;;;;;;;21.15;35.74;100994.34;102991;1289;63446;-78
2024/04/05 01:24:43;;;;;;;;;;;;;;;21.15;35.73;100998.65;102836;1294;62931;-78
2024/04/05 01:27:09;;;;;;;;;;;;;;;21.15;35.83;101007.77;102819;1305;63006;-77
2024/04/05 01:29:34;;;;;;;;;;;;;;;21.15;35.67;101009.94;102778;1294;76164;-80
2024/04/05 01:32:00;;;;;;;;;;;;;;;21.15;35.94;101011.54;102738;1295;62888;-78
2024/04/05 01:34:25;;;;;;;;;;;;;;;21.15;35.78;101007.08;102997;1289;63020;-78
2024/04/05 01:36:51;;;;;;;;;;;;;;;21.15;35.73;101008.52;102793;1294;63016;-80
2024/04/05 01:39:17;;;;;;;;;;;;;;;21.14;35.74;101011.20;103077;1294;63112;-78
2024/04/05 01:41:42;;;;;;;;;;;;;;;21.14;35.82;101012.83;102737;1291;76102;-78
2024/04/05 01:44:08;;;;;;;;;;;;;;;21.14;35.78;101016.22;102850;1294;63019;-78
2024/04/05 01:46:33;;;;;;;;;;;;;;;21.14;35.86;101021.83;103037;1294;64130;-78
2024/04/05 01:48:59;;;;;;;;;;;;;;;21.14;35.84;101025.89;102799;1292;63092;-78
2024/04/05 01:51:24;;;;;;;;;;;;;;;21.14;35.88;101022.36;103038;1294;63036;-78
2024/04/05 01:53:50;;;;;;;;;;;;;;;21.14;35.80;101025.91;102983;1290;75284;-78
2024/04/05 01:56:15;;;;;;;;;;;;;;;21.13;35.94;101027.39;103036;1294;64599;-79
2024/04/05 01:58:42;;;;;;;;;;;;;;;21.13;35.82;101026.70;103017;1292;63010;-78
2024/04/05 02:01:07;;;;;;;;;;;;;;;21.14;35.85;101023.96;102995;1294;63045;-77
2024/04/05 02:03:33;;;;;;;;;;;;;;;21.13;35.70;101025.80;102788;1292;63044;-78
2024/04/05 02:05:59;;;;;;;;;;;;;;;21.13;35.78;101023.65;102840;1290;63502;-78
2024/04/05 02:08:24;;;;;;;;;;;;;;;21.13;35.82;101028.51;102788;1295;62975;-78
2024/04/05 02:10:50;;;;;;;;;;;;;;;21.13;35.77;101026.89;102823;1294;63610;-78
2024/04/05 02:13:15;;;;;;;;;;;;;;;21.12;35.81;101032.11;102765;1294;62994;-78
2024/04/05 02:15:44;;;;;;;;;;;;;;;21.13;35.81;101033.53;103056;1294;63017;-78
2024/04/05 02:18:10;;;;;;;;;;;;;;;21.12;35.73;101031.94;103014;1294;63894;-79
2024/04/05 02:20:36;;;;;;;;;;;;;;;21.12;35.78;101036.08;102993;1292;63772;-78
2024/04/05 02:23:02;;;;;;;;;;;;;;;21.12;35.75;101038.39;102518;1289;709157;-79
2024/04/05 02:25:27;;;;;;;;;;;;;;;21.12;35.84;101039.10;103017;1292;63090;-79
2024/04/05 02:27:53;;;;;;;;;;;;;;;21.12;35.92;101037.85;103020;1289;63010;-78
2024/04/05 02:30:20;;;;;;;;;;;;;;;21.12;35.77;101038.95;102772;1294;63068;-78
2024/04/05 02:32:46;;;;;;;;;;;;;;;21.11;35.74;101040.42;102857;1291;62956;-78
2024/04/05 02:35:12;;;;;;;;;;;;;;;21.11;35.73;101042.03;102809;1289;63057;-79
2024/04/05 02:37:37;;;;;;;;;;;;;;;21.11;35.94;101048.84;102998;1292;63957;-78
2024/04/05 02:40:04;;;;;;;;;;;;;;;21.11;35.73;101051.35;102818;1292;63349;-79
2024/04/05 02:42:29;;;;;;;;;;;;;;;21.10;35.87;101050.64;103011;1292;63014;-78
2024/04/05 02:44:55;;;;;;;;;;;;;;;21.11;35.85;101051.55;103173;1292;63011;-78
2024/04/05 02:47:21;;;;;;;;;;;;;;;21.11;35.90;101052.60;103002;1292;72514;-79
2024/04/05 02:49:46;;;;;;;;;;;;;;;21.10;35.90;101051.73;103012;1294;63451;-77
2024/04/05 02:52:12;;;;;;;;;;;;;;;21.10;35.87;101055.83;102805;1290;62933;-76
2024/04/05 02:54:38;;;;;;;;;;;;;;;21.10;35.95;101056.41;102891;1291;63000;-78
2024/04/05 02:57:03;;;;;;;;;;;;;;;21.10;35.82;101057.30;102858;1294;63725;-81
2024/04/05 02:59:29;;;;;;;;;;;;;;;21.10;35.79;101055.86;102823;1294;72520;-77
2024/04/05 03:01:54;;;;;;;;;;;;;;;21.10;35.89;101058.56;103124;1294;62998;-79
2024/04/05 03:04:20;;;;;;;;;;;;;;;21.09;35.85;101060.21;103021;1292;63057;-79
2024/04/05 03:06:46;;;;;;;;;;;;;;;21.10;35.86;101065.37;103054;1289;63023;-79
2024/04/05 03:09:12;;;;;;;;;;;;;;;21.10;35.93;101067.15;103043;1294;62905;-79
2024/04/05 03:11:37;;;;;;;;;;;;;;;21.09;35.82;101072.02;103115;1292;63766;-78
2024/04/05 03:14:03;;;;;;;;;;;;;;;21.09;35.81;101072.21;102968;1290;75899;-78
2024/04/05 03:16:29;;;;;;;;;;;;;;;21.09;35.82;101080.97;102811;1292;63066;-79
2024/04/05 03:18:54;;;;;;;;;;;;;;;21.09;35.88;101079.76;102796;1292;63318;-79
2024/04/05 03:21:20;;;;;;;;;;;;;;;21.09;35.90;101085.83;103039;1291;63008;-78
2024/04/05 03:23:45;;;;;;;;;;;;;;;21.09;35.76;101082.27;102847;1289;63832;-78
2024/04/05 03:26:11;;;;;;;;;;;;;;;21.09;35.78;101085.12;103030;1294;76077;-78
2024/04/05 03:28:36;;;;;;;;;;;;;;;21.08;35.95;101089.61;102762;1289;63007;-79
2024/04/05 03:31:03;;;;;;;;;;;;;;;21.08;35.88;101091.25;102764;1291;63032;-77
2024/04/05 03:33:31;;;;;;;;;;;;;;;21.08;35.77;101092.34;103004;1294;62933;-78
2024/04/05 03:35:56;;;;;;;;;;;;;;;21.08;35.77;101096.27;103061;1290;63013;-78
2024/04/05 03:38:23;;;;;;;;;;;;;;;21.08;35.87;101101.09;102795;1292;64665;-78
2024/04/05 03:40:49;;;;;;;;;;;;;;;21.08;36.02;101102.38;102999;1292;63354;-78
2024/04/05 03:43:15;;;;;;;;;;;;;;;21.08;35.89;101108.10;103000;1292;63001;-79
2024/04/05 03:45:41;;;;;;;;;;;;;;;21.08;35.81;101108.27;102948;1294;63071;-78
2024/04/05 03:48:07;;;;;;;;;;;;;;;21.08;35.85;101110.25;102876;1294;63728;-76
2024/04/05 03:50:33;;;;;;;;;;;;;;;21.07;35.88;101111.88;103229;1290;63021;-78
2024/04/05 03:52:58;;;;;;;;;;;;;;;21.07;35.74;101119.39;102756;1291;62982;-79
2024/04/05 03:55:24;;;;;;;;;;;;;;;21.07;35.80;101120.81;102797;1292;63067;-80
2024/04/05 03:57:52;;;;;;;;;;;;;;;21.08;35.89;101122.95;103023;1293;64140;-79
2024/04/05 04:00:19;;;;;;;;;;;;;;;21.08;35.91;101123.13;102829;1290;64068;-77
2024/04/05 04:02:44;;;;;;;;;;;;;;;21.08;35.85;101128.50;103003;1291;62950;-79
2024/04/05 04:05:10;;;;;;;;;;;;;;;21.07;35.81;101127.26;103115;1294;62998;-79
2024/04/05 04:07:36;;;;;;;;;;;;;;;21.08;35.86;101126.71;103446;1290;63328;-77
2024/04/05 04:10:01;;;;;;;;;;;;;;;21.07;35.81;101127.65;103288;1294;63040;-79
2024/04/05 04:12:28;;;;;;;;;;;;;;;21.07;35.93;101128.73;103259;1289;63620;-79
2024/04/05 04:14:54;;;;;;;;;;;;;;;21.06;36.00;101130.41;102977;1292;63436;-79
2024/04/05 04:17:20;;;;;;;;;;;;;;;21.05;35.85;101130.14;103240;1292;62955;-78
2024/04/05 04:19:46;;;;;;;;;;;;;;;21.03;35.76;101134.21;102964;1290;76065;-77
2024/04/05 04:22:12;;;;;;;;;;;;;;;21.01;35.79;101140.77;103020;1292;63046;-78
2024/04/05 04:24:38;;;;;;;;;;;;;;;20.99;35.86;101144.62;103008;1291;63016;-79
2024/04/05 04:27:03;;;;;;;;;;;;;;;20.97;35.78;101145.30;102853;1292;64106;-79
2024/04/05 04:29:31;;;;;;;;;;;;;;;20.96;35.73;101152.20;103043;1294;64182;-81
2024/04/05 04:31:56;;;;;;;;;;;;;;;20.93;35.73;101151.43;103108;1290;63766;-78
2024/04/05 04:34:22;;;;;;;;;;;;;;;20.91;35.60;101156.04;102904;1291;64183;-79
2024/04/05 04:36:48;;;;;;;;;;;;;;;20.91;35.72;101156.09;103043;1290;63715;-79
2024/04/05 04:39:13;;;;;;;;;;;;;;;20.88;35.73;101162.87;102847;1291;72297;-79
2024/04/05 04:41:39;;;;;;;;;;;;;;;20.87;35.60;101168.66;103105;1289;63035;-80
2024/04/05 04:44:06;;;;;;;;;;;;;;;20.86;35.56;101168.75;103094;1289;63022;-77
2024/04/05 04:46:32;;;;;;;;;;;;;;;20.85;35.69;101170.59;103523;1291;63757;-78
2024/04/05 04:48:58;;;;;;;;;;;;;;;20.84;35.63;101171.77;103507;1291;62969;-78
2024/04/05 04:51:24;;;;;;;;;;;;;;;20.83;35.56;101172.89;103411;1296;62825;-79
2024/04/05 04:53:49;;;;;;;;;;;;;;;20.82;35.50;101177.08;103855;1291;63581;-78
2024/04/05 04:56:16;;;;;;;;;;;;;;;20.80;35.60;101178.42;104156;1291;62890;-79
2024/04/05 04:58:42;;;;;;;;;;;;;;;20.78;35.64;101185.70;104049;1290;63036;-81
2024/04/05 05:01:07;;;;;;;;;;;;;;;20.76;35.53;101184.73;104166;1289;63056;-79
2024/04/05 05:03:33;;;;;;;;;;;;;;;20.75;35.57;101186.77;104529;1291;60933;-81
2024/04/05 05:05:59;;;;;;;;;;;;;;;20.74;35.59;101190.94;104732;1289;62998;-80
2024/04/05 05:08:24;;;;;;;;;;;;;;;20.73;35.59;101193.16;104794;1291;62936;-79
2024/04/05 05:10:50;;;;;;;;;;;;;;;20.71;35.58;101193.63;104604;1291;63001;-79
2024/04/05 05:13:15;;;;;;;;;;;;;;;20.72;35.59;101195.37;104863;1291;72978;-79
2024/04/05 05:15:42;;;;;;;;;;;;;;;20.73;35.45;101197.64;104886;1290;62908;-79
2024/04/05 05:18:08;;;;;;;;;;;;;;;20.75;35.54;101200.04;104747;1291;62780;-79
2024/04/05 05:20:34;;;;;;;;;;;;;;;20.75;35.66;101204.49;104563;1289;63085;-79
2024/04/05 05:23:00;;;;;;;;;;;;;;;20.76;35.57;101209.08;104540;1294;62757;-80
2024/04/05 05:25:25;;;;;;;;;;;;;;;20.77;35.76;101217.95;104307;1291;63000;-82
2024/04/05 05:27:51;;;;;;;;;;;;;;;20.78;35.63;101222.55;104170;1289;63013;-79
2024/04/05 05:30:16;;;;;;;;;;;;;;;20.79;35.54;101223.23;104243;1294;62984;-80
2024/04/05 05:32:42;;;;;;;;;;;;;;;20.79;35.46;101222.31;104328;1289;62916;-79
2024/04/05 05:35:08;;;;;;;;;;;;;;;20.80;35.44;101222.63;104190;1290;61626;-80
2024/04/05 05:37:33;;;;;;;;;;;;;;;20.80;35.45;101222.83;104058;1294;62977;-79
2024/04/05 05:39:59;;;;;;;;;;;;;;;20.80;35.36;101226.39;104331;1289;63007;-79
2024/04/05 05:42:26;;;;;;;;;;;;;;;20.80;35.47;101221.22;104565;1290;61699;-80
2024/04/05 05:44:52;;;;;;;;;;;;;;;20.80;35.43;101218.88;104522;1289;62899;-80
2024/04/05 05:47:18;;;;;;;;;;;;;;;20.80;35.29;101224.75;104562;1291;63020;-78
2024/04/05 05:49:43;;;;;;;;;;;;;;;20.79;35.37;101222.67;104302;1291;60601;-79
2024/04/05 05:52:10;;;;;;;;;;;;;;;20.77;35.34;101230.11;104574;1290;63091;-81
2024/04/05 05:54:35;;;;;;;;;;;;;;;20.74;35.15;101234.77;104726;1290;62927;-78
2024/04/05 05:57:02;;;;;;;;;;;;;;;20.66;35.20;101237.98;104435;1291;63242;-82
2024/04/05 05:59:28;;;;;;;;;;;;;;;20.67;35.24;101236.28;104819;1294;62897;-79
2024/04/05 06:01:54;;;;;;;;;;;;;;;20.70;35.60;101240.22;104813;1291;62895;-76
2024/04/05 06:04:20;;;;;;;;;;;;;;;20.72;35.66;101241.88;104378;1291;63016;-77
2024/04/05 06:06:46;;;;;;;;;;;;;;;20.75;35.67;101240.82;104773;1289;61225;-77
2024/04/05 06:09:14;;;;;;;;;;;;;;;20.77;35.64;101243.34;104738;1292;60715;-78
2024/04/05 06:11:40;;;;;;;;;;;;;;;20.79;35.63;101246.45;105842;1290;76013;-78
2024/04/05 06:14:06;;;;;;;;;;;;;;;20.82;35.68;101244.51;104359;1290;63071;-81
2024/04/05 06:16:32;;;;;;;;;;;;;;;20.84;35.70;101253.27;104683;1289;62994;-79
2024/04/05 06:18:57;;;;;;;;;;;;;;;20.86;35.67;101254.96;104874;1291;61372;-79
2024/04/05 06:21:23;;;;;;;;;;;;;;;20.89;35.65;101254.44;104566;1289;62879;-79
2024/04/05 06:23:49;;;;;;;;;;;;;;;20.91;35.68;101259.33;104754;1289;62951;-79
2024/04/05 06:26:15;;;;;;;;;;;;;;;20.92;35.50;101260.84;104762;1290;61190;-78
2024/04/05 06:28:40;;;;;;;;;;;;;;;20.93;35.60;101264.52;104738;1290;62774;-79
2024/04/05 06:31:06;;;;;;;;;;;;;;;20.95;35.53;101267.15;104529;1294;61005;-79
2024/04/05 06:33:32;;;;;;;;;;;;;;;20.96;35.49;101272.27;104661;1291;62928;-79
2024/04/05 06:36:01;;;;;;;;;;;;;;;20.97;35.59;101275.02;104795;1290;62921;-79
2024/04/05 06:38:26;;;;;;;;;;;;;;;20.98;35.59;101279.61;104393;1290;62930;-79
2024/04/05 06:40:59;;;;;;;;;;;;;;;20.99;35.45;101279.76;104382;1291;62787;-81
2024/04/05 06:43:26;;;;;;;;;;;;;;;21.00;35.38;101283.43;104492;1289;76015;-78
2024/04/05 06:45:55;;;;;;;;;;;;;;;21.00;35.43;101286.28;104366;1289;62963;-80
2024/04/05 06:48:20;;;;;;;;;;;;;;;21.00;35.36;101289.50;104505;1289;62883;-79
2024/04/05 06:50:46;;;;;;;;;;;;;;;21.01;35.43;101293.36;104509;1290;61349;-79
2024/04/05 06:53:12;;;;;;;;;;;;;;;21.02;35.21;101296.57;104669;1290;62930;-83
2024/04/05 06:55:37;;;;;;;;;;;;;;;20.98;35.09;101296.99;104776;1294;63001;-80
2024/04/05 06:58:03;;;;;;;;;;;;;;;20.96;35.13;101305.33;105811;1289;60551;-80
2024/04/05 07:00:28;;;;;;;;;;;;;;;20.96;35.37;101306.98;104561;1294;62918;-81
2024/04/05 07:02:54;;;;;;;;;;;;;;;20.98;35.44;101309.33;104488;1289;62874;-81
2024/04/05 07:05:19;;;;;;;;;;;;;;;21.00;35.50;101311.52;104288;1291;61691;-81
2024/04/05 07:07:45;;;;;;;;;;;;;;;21.02;35.42;101315.70;104542;1289;62991;-78
2024/04/05 07:10:11;;;;;;;;;;;;;;;21.04;35.57;101312.55;104311;1290;63091;-78
2024/04/05 07:12:36;;;;;;;;;;;;;;;21.06;35.64;101312.41;104517;1291;62901;-80
2024/04/05 07:15:02;;;;;;;;;;;;;;;21.07;35.67;101316.27;104514;1290;72368;-78
2024/04/05 07:17:28;;;;;;;;;;;;;;;21.07;35.66;101317.31;104682;1289;62965;-82
2024/04/05 07:19:54;;;;;;;;;;;;;;;21.08;35.54;101319.23;104995;1289;63011;-80
2024/04/05 07:22:19;;;;;;;;;;;;;;;21.08;35.43;101320.70;104502;1289;60277;-80
2024/04/05 07:24:45;;;;;;;;;;;;;;;21.07;35.50;101319.88;104659;1289;62993;-79
2024/04/05 07:27:11;;;;;;;;;;;;;;;21.07;35.35;101324.34;105019;1290;63243;-80
2024/04/05 07:29:37;;;;;;;;;;;;;;;21.06;35.20;101318.08;105111;1292;76079;-81
2024/04/05 07:32:04;;;;;;;;;;;;;;;21.07;35.32;101328.98;105202;1290;62990;-81
2024/04/05 07:34:30;;;;;;;;;;;;;;;21.06;35.22;101326.38;104977;1291;62993;-80
2024/04/05 07:36:56;;;;;;;;;;;;;;;21.03;35.24;101327.09;104674;1291;62892;-81
2024/04/05 07:39:22;;;;;;;;;;;;;;;21.01;35.16;101327.19;104833;1291;60825;-81
2024/04/05 07:41:48;;;;;;;;;;;;;;;21.01;35.13;101328.80;104677;1291;62971;-80
2024/04/05 07:44:13;;;;;;;;;;;;;;;21.03;35.07;101334.63;105041;1289;63001;-80
2024/04/05 07:46:41;;;;;;;;;;;;;;;21.03;34.91;101335.67;104961;1289;62998;-79
2024/04/05 07:49:07;;;;;;;;;;;;;;;21.03;35.05;101334.09;104947;1290;62774;-80
2024/04/05 07:51:32;;;;;;;;;;;;;;;21.01;34.87;101339.38;105186;1291;62914;-81
2024/04/05 07:53:58;;;;;;;;;;;;;;;21.00;34.69;101340.72;105251;1289;62866;-81
2024/04/05 07:56:25;;;;;;;;;;;;;;;20.98;34.82;101340.83;104856;1292;63046;-81
2024/04/05 07:58:51;;;;;;;;;;;;;;;20.95;35.00;101339.41;104979;1291;73227;-80
2024/04/05 08:01:18;;;;;;;;;;;;;;;20.93;34.83;101339.69;104894;1291;63011;-82
2024/04/05 08:03:44;;;;;;;;;;;;;;;20.89;34.90;101338.83;106056;1290;60325;-79
2024/04/05 08:06:10;;;;;;;;;;;;;;;20.89;34.97;101336.41;104710;1292;62900;-80
2024/04/05 08:08:35;;;;;;;;;;;;;;;20.87;35.02;101337.71;104839;1291;60673;-78
2024/04/05 08:11:01;;;;;;;;;;;;;;;20.86;35.12;101337.95;104569;1291;62831;-81
2024/04/05 08:13:27;;;;;;;;;;;;;;;20.89;35.15;101334.10;104543;1290;60857;-79
2024/04/05 08:15:53;;;;;;;;;;;;;;;20.92;35.22;101333.12;104779;1290;62930;-80
2024/04/05 08:18:18;;;;;;;;;;;;;;;20.93;35.12;101332.35;104724;1290;62937;-81
2024/04/05 08:20:44;;;;;;;;;;;;;;;20.95;35.07;101335.30;104300;1291;63008;-81
2024/04/05 08:23:09;;;;;;;;;;;;;;;20.95;34.84;101331.37;104538;1289;62873;-78
2024/04/05 08:25:35;;;;;;;;;;;;;;;20.95;34.90;101331.91;104444;1291;63014;-79
2024/04/05 08:28:01;;;;;;;;;;;;;;;20.90;34.69;101334.15;104740;1291;62840;-81
2024/04/05 08:30:26;;;;;;;;;;;;;;;20.83;34.56;101335.46;104760;1290;62961;-81
2024/04/05 08:32:53;;;;;;;;;;;;;;;20.77;34.63;101334.21;104607;1291;63042;-79
2024/04/05 08:35:19;;;;;;;;;;;;;;;20.78;34.72;101328.30;104592;1291;62985;-79
2024/04/05 08:37:44;;;;;;;;;;;;;;;20.79;34.58;101322.31;104721;1291;60948;-80
2024/04/05 08:40:10;;;;;;;;;;;;;;;20.81;34.80;101315.96;104360;1289;63027;-80
2024/04/05 08:42:37;;;;;;;;;;;;;;;20.85;34.87;101312.84;104740;1294;63000;-79
2024/04/05 08:45:03;;;;;;;;;;;;;;;20.87;34.84;101313.21;105092;1290;61319;-80
2024/04/05 08:47:32;;;;;;;;;;;;;;;20.89;34.85;101318.72;104874;1290;62856;-80
2024/04/05 08:50:04;;;;;;;;;;;;;;;20.88;34.75;101316.47;106071;1290;61941;-79
2024/04/05 08:52:29;;;;;;;;;;;;;;;20.88;34.85;101316.73;105096;1290;71523;-79
2024/04/05 08:54:57;;;;;;;;;;;;;;;20.90;34.71;101318.10;104903;1291;63019;-81
2024/04/05 08:57:27;;;;;;;;;;;;;;;20.90;34.60;101318.23;104995;1291;62129;-80
2024/04/05 08:59:54;;;;;;;;;;;;;;;20.86;34.57;101315.80;105191;1290;62969;-80
2024/04/05 09:02:20;;;;;;;;;;;;;;;20.83;34.48;101313.30;105409;1294;72592;-80
2024/04/05 09:04:46;;;;;;;;;;;;;;;20.85;34.67;101314.63;105416;1290;60654;-79
2024/04/05 09:07:11;;;;;;;;;;;;;;;20.92;34.91;101315.58;105452;1289;60766;-80
2024/04/05 09:09:37;;;;;;;;;;;;;;;21.01;35.34;101311.27;105369;1290;61454;-79
2024/04/05 09:12:14;;;;;;;;;;;;;;;21.08;35.28;101308.87;105480;1294;63042;-78
2024/04/05 09:14:40;;;;;;;;;;;;;;;21.09;35.37;101305.73;105210;1290;75825;-81
2024/04/05 09:17:14;;;;;;;;;;;;;;;21.09;35.19;101304.33;105181;1291;60711;-79
2024/04/05 09:19:40;;;;;;;;;;;;;;;21.09;35.31;101305.20;105140;1294;62850;-80
2024/04/05 09:22:06;;;;;;;;;;;;;;;21.12;35.39;101300.79;105141;1289;61457;-78
2024/04/05 09:24:33;;;;;;;;;;;;;;;21.16;35.58;101299.63;105006;1289;62866;-79
2024/04/05 09:27:00;;;;;;;;;;;;;;;21.18;35.62;101296.83;104810;1289;63074;-80
2024/04/05 09:29:26;;;;;;;;;;;;;;;21.19;35.48;101297.10;104853;1291;62952;-80
2024/04/05 09:31:54;;;;;;;;;;;;;;;21.20;35.51;101298.81;104965;1291;62913;-78
2024/04/05 09:34:25;;;;;;;;;;;;;;;21.23;35.51;101302.03;104702;1290;76311;-78
2024/04/05 09:36:50;;;;;;;;;;;;;;;21.24;35.41;101298.71;105016;1291;62872;-81
2024/04/05 09:39:18;;;;;;;;;;;;;;;21.25;35.43;101302.62;104779;1289;63017;-79
2024/04/05 09:41:45;;;;;;;;;;;;;;;21.27;35.39;101305.35;105029;1291;72646;-79
2024/04/05 09:44:11;;;;;;;;;;;;;;;21.29;35.34;101304.02;104583;1293;75863;-79
2024/04/05 09:46:36;;;;;;;;;;;;;;;21.30;35.37;101306.58;104759;1291;62961;-79
2024/04/05 09:49:02;;;;;;;;;;;;;;;21.31;35.33;101305.11;104680;1289;61696;-79
2024/04/05 09:51:44;;;;;;;;;;;;;;;21.31;35.25;101305.31;104648;1289;62820;-78
2024/04/05 09:54:12;;;;;;;;;;;;;;;21.20;34.56;101304.38;104905;1290;76117;-78
2024/04/05 09:56:40;;;;;;;;;;;;;;;21.11;34.51;101308.31;104586;1289;62928;-79
2024/04/05 09:59:16;;;;;;;;;;;;;;;21.09;34.53;101304.32;104968;1290;62884;-79
2024/04/05 10:01:42;;;;;;;;;;;;;;;21.11;34.59;101306.56;105036;1289;71767;-80
2024/04/05 10:04:08;;;;;;;;;;;;;;;21.13;34.61;101305.38;106003;1291;76062;-82
2024/04/05 10:06:42;;;;;;;;;;;;;;;21.15;34.58;101302.91;105990;1289;60536;-80
2024/04/05 10:09:21;;;;;;;;;;;;;;;21.18;34.47;101298.59;106078;1289;60441;-79
2024/04/05 10:11:47;;;;;;;;;;;;;;;21.23;34.66;101300.77;105769;1290;73332;-80
2024/04/05 10:14:25;;;;;;;;;;;;;;;21.27;34.73;101305.36;106054;1290;60590;-78
2024/04/05 10:16:51;;;;;;;;;;;;;;;21.26;34.71;101299.65;106131;1289;61375;-78
2024/04/05 10:19:16;;;;;;;;;;;;;;;21.25;34.60;101298.69;106059;1289;60604;-79
2024/04/05 10:21:43;;;;;;;;;;;;;;;21.26;34.47;101294.13;106057;1290;61248;-78
2024/04/05 10:24:10;;;;;;;;;;;;;;;21.27;34.41;101298.71;106127;1291;60495;-78
2024/04/05 10:26:36;;;;;;;;;;;;;;;21.29;34.52;101296.13;106166;1290;61664;-78
2024/04/05 10:29:04;;;;;;;;;;;;;;;21.30;34.57;101295.15;104881;1290;65316;-79
2024/04/05 10:31:32;;;;;;;;;;;;;;;21.32;34.48;101299.80;104484;1291;72271;-78
2024/04/05 10:33:59;;;;;;;;;;;;;;;21.34;34.66;101296.83;104611;1290;76078;-82
2024/04/05 10:36:24;;;;;;;;;;;;;;;21.37;34.57;101294.67;104689;1291;62782;-80
2024/04/05 10:38:50;;;;;;;;;;;;;;;21.38;34.75;101298.90;104869;1289;63008;-80
2024/04/05 10:41:16;;;;;;;;;;;;;;;21.39;34.79;101302.94;104484;1289;62996;-81
2024/04/05 10:43:43;;;;;;;;;;;;;;;21.40;34.74;101295.92;104752;1290;62894;-79
2024/04/05 10:46:10;;;;;;;;;;;;;;;21.41;34.92;101294.40;104752;1291;60676;-81
2024/04/05 10:48:35;;;;;;;;;;;;;;;21.45;34.96;101293.84;104582;1292;62927;-79
2024/04/05 10:51:04;;;;;;;;;;;;;;;21.45;34.81;101289.14;104330;1289;62895;-79
2024/04/05 10:53:29;;;;;;;;;;;;;;;21.47;34.93;101286.35;104604;1291;62934;-78
2024/04/05 10:55:55;;;;;;;;;;;;;;;21.47;34.78;101287.09;104783;1291;62813;-81
2024/04/05 10:58:21;;;;;;;;;;;;;;;21.46;34.97;101282.62;104727;1291;60701;-78
2024/04/05 11:00:47;;;;;;;;;;;;;;;21.48;34.87;101281.45;105117;1294;60621;-79
2024/04/05 11:03:14;;;;;;;;;;;;;;;21.50;34.86;101285.28;105902;1291;60495;-80
2024/04/05 11:05:40;;;;;;;;;;;;;;;21.54;35.00;101282.69;105867;1291;61752;-80
2024/04/05 11:08:08;;;;;;;;;;;;;;;21.58;35.08;101288.70;106030;1289;61208;-79
2024/04/05 11:10:34;;;;;;;;;;;;;;;21.62;35.03;101286.33;105820;1291;60731;-81
2024/04/05 11:13:00;;;;;;;;;;;;;;;21.64;35.00;101290.61;105896;1289;61239;-83
2024/04/05 11:15:25;;;;;;;;;;;;;;;21.66;35.12;101285.14;106112;1291;60417;-80
2024/04/05 11:18:17;;;;;;;;;;;;;;;21.67;35.06;101284.02;105914;1292;60626;-80
2024/04/05 11:20:49;;;;;;;;;;;;;;;21.65;34.91;101285.71;105313;1300;62321;-79
2024/04/05 11:23:16;;;;;;;;;;;;;;;21.63;35.02;101286.93;105260;1297;72451;-81
2024/04/05 11:25:41;;;;;;;;;;;;;;;21.63;34.89;101290.20;105208;1297;76951;-80
2024/04/05 11:28:14;;;;;;;;;;;;;;;21.62;34.92;101286.11;105123;1297;61504;-81
2024/04/05 11:30:42;;;;;;;;;;;;;;;21.62;34.70;101286.66;105196;1296;60684;-81
2024/04/05 11:33:08;;;;;;;;;;;;;;;21.62;34.75;101284.88;105341;1296;72537;-80
2024/04/05 11:35:37;;;;;;;;;;;;;;;21.62;34.62;101286.29;105352;1297;60390;-80
2024/04/05 11:38:03;;;;;;;;;;;;;;;21.62;34.26;101283.62;105421;1296;61082;-80
2024/04/05 11:40:28;;;;;;;;;;;;;;;21.61;34.32;101278.48;105333;1298;61952;-80
2024/04/05 11:42:54;;;;;;;;;;;;;;;21.60;34.20;101278.16;105445;1296;60063;-80
2024/04/05 11:45:19;;;;;;;;;;;;;;;21.59;34.03;101277.13;105437;1296;61289;-79
2024/04/05 11:47:48;;;;;;;;;;;;;;;21.56;34.12;101276.61;105526;1296;60659;-80
2024/04/05 11:50:13;;;;;;;;;;;;;;;21.54;33.95;101273.36;105252;1296;61178;-80
2024/04/05 11:52:39;;;;;;;;;;;;;;;21.55;34.15;101273.66;105421;1297;61252;-81
2024/04/05 11:55:05;;;;;;;;;;;;;;;21.58;34.24;101275.27;105370;1297;60506;-81
2024/04/05 11:57:31;;;;;;;;;;;;;;;21.57;34.18;101267.95;105478;1289;60682;-79
2024/04/05 11:59:57;;;;;;;;;;;;;;;21.57;34.23;101263.33;105910;1291;60584;-81
2024/04/05 12:02:22;;;;;;;;;;;;;;;21.56;34.32;101259.98;105790;1289;60476;-82
2024/04/05 12:04:49;;;;;;;;;;;;;;;21.55;34.13;101256.14;106051;1289;60535;-80
2024/04/05 12:07:14;;;;;;;;;;;;;;;21.54;34.19;101252.08;105964;1291;72613;-81
2024/04/05 12:09:40;;;;;;;;;;;;;;;21.54;34.22;101249.39;105955;1290;60599;-79
2024/04/05 12:12:06;;;;;;;;;;;;;;;21.54;34.17;101243.12;105113;1291;62889;-79
2024/04/05 12:14:33;;;;;;;;;;;;;;;21.53;34.12;101242.59;104856;1290;62861;-78
2024/04/05 12:16:59;;;;;;;;;;;;;;;21.56;34.26;101244.77;104765;1291;62902;-80
2024/04/05 12:19:25;;;;;;;;;;;;;;;21.57;34.40;101235.02;104807;1292;62925;-78
2024/04/05 12:21:50;;;;;;;;;;;;;;;21.58;34.32;101236.40;104837;1291;62970;-79